sensor_id;sensor_type;location;lat;lon;timestamp;temperature;humidity
19522;DHT22;9905;52.126;5.596;2023-12-29T00:01:03;10.80;99.90
19522;DHT22;9905;52.126;5.596;2023-12-29T00:03:30;10.90;99.90
19522;DHT22;9905;52.126;5.596;2023-12-29T00:05:58;10.90;99.90
19522;DHT22;9905;52.126;5.596;2023-12-29T00:08:25;10.90;99.90
19522;DHT22;9905;52.126;5.596;2023-12-29T00:10:51;10.90;99.90
19522;DHT22;9905;52.126;5.596;2023-12-29T00:13:18;10.90;99.90
19522;DHT22;9905;52.126;5.596;2023-12-29T00:15:49;11.00;99.90
19522;DHT22;9905;52.126;5.596;2023-12-29T00:18:18;11.00;99.90
19522;DHT22;9905;52.126;5.596;2023-12-29T00:20:44;11.00;99.90
19522;DHT22;9905;52.126;5.596;2023-12-29T00:23:12;11.00;99.90
19522;DHT22;9905;52.126;5.596;2023-12-29T00:25:39;11.00;99.90
19522;DHT22;9905;52.126;5.596;2023-12-29T00:28:06;10.90;99.90
19522;DHT22;9905;52.126;5.596;2023-12-29T00:30:33;10.80;99.90
19522;DHT22;9905;52.126;5.596;2023-12-29T00:32:59;10.70;99.90
19522;DHT22;9905;52.126;5.596;2023-12-29T00:35:26;10.70;99.90
19522;DHT22;9905;52.126;5.596;2023-12-29T00:37:53;10.60;99.90
19522;DHT22;9905;52.126;5.596;2023-12-29T00:40:21;10.50;99.90
19522;DHT22;9905;52.126;5.596;2023-12-29T00:42:48;10.50;99.90
19522;DHT22;9905;52.126;5.596;2023-12-29T00:45:14;10.50;99.90
19522;DHT22;9905;52.126;5.596;2023-12-29T00:47:41;10.50;99.90
19522;DHT22;9905;52.126;5.596;2023-12-29T00:50:08;10.50;99.90
19522;DHT22;9905;52.126;5.596;2023-12-29T00:52:35;10.60;99.90
19522;DHT22;9905;52.126;5.596;2023-12-29T00:55:02;10.60;99.90
19522;DHT22;9905;52.126;5.596;2023-12-29T00:57:30;10.60;99.90
19522;DHT22;9905;52.126;5.596;2023-12-29T00:59:57;10.70;99.90
19522;DHT22;9905;52.126;5.596;2023-12-29T01:02:24;10.70;99.90
19522;DHT22;9905;52.126;5.596;2023-12-29T01:04:50;10.70;99.90
19522;DHT22;9905;52.126;5.596;2023-12-29T01:07:17;10.70;99.90
19522;DHT22;9905;52.126;5.596;2023-12-29T01:09:44;10.80;99.90
19522;DHT22;9905;52.126;5.596;2023-12-29T01:12:11;10.80;99.90
19522;DHT22;9905;52.126;5.596;2023-12-29T01:14:39;10.80;99.90
19522;DHT22;9905;52.126;5.596;2023-12-29T01:17:06;10.80;99.90
19522;DHT22;9905;52.126;5.596;2023-12-29T01:19:33;10.90;99.90
19522;DHT22;9905;52.126;5.596;2023-12-29T01:21:59;10.80;99.90
19522;DHT22;9905;52.126;5.596;2023-12-29T01:24:26;10.90;99.90
19522;DHT22;9905;52.126;5.596;2023-12-29T01:26:53;10.90;99.90
19522;DHT22;9905;52.126;5.596;2023-12-29T01:29:20;10.90;99.90
19522;DHT22;9905;52.126;5.596;2023-12-29T01:31:48;10.90;99.90
19522;DHT22;9905;52.126;5.596;2023-12-29T01:34:15;10.90;99.90
19522;DHT22;9905;52.126;5.596;2023-12-29T01:36:41;10.90;99.90
19522;DHT22;9905;52.126;5.596;2023-12-29T01:39:08;10.90;99.90
19522;DHT22;9905;52.126;5.596;2023-12-29T01:41:35;10.90;99.90
19522;DHT22;9905;52.126;5.596;2023-12-29T01:44:19;10.90;99.90
19522;DHT22;9905;52.126;5.596;2023-12-29T01:46:49;10.90;99.90
19522;DHT22;9905;52.126;5.596;2023-12-29T01:49:16;10.90;99.90
19522;DHT22;9905;52.126;5.596;2023-12-29T01:51:44;10.90;99.90
19522;DHT22;9905;52.126;5.596;2023-12-29T01:54:11;10.90;99.90
19522;DHT22;9905;52.126;5.596;2023-12-29T01:56:39;10.90;99.90
19522;DHT22;9905;52.126;5.596;2023-12-29T01:59:06;10.90;99.90
19522;DHT22;9905;52.126;5.596;2023-12-29T02:01:33;10.90;99.90
19522;DHT22;9905;52.126;5.596;2023-12-29T02:04:02;10.90;99.90
19522;DHT22;9905;52.126;5.596;2023-12-29T02:06:29;10.90;99.90
19522;DHT22;9905;52.126;5.596;2023-12-29T02:08:57;10.90;99.90
19522;DHT22;9905;52.126;5.596;2023-12-29T02:11:24;10.90;99.90
19522;DHT22;9905;52.126;5.596;2023-12-29T02:13:51;10.90;99.90
19522;DHT22;9905;52.126;5.596;2023-12-29T02:16:22;10.90;99.90
19522;DHT22;9905;52.126;5.596;2023-12-29T02:18:52;10.80;99.90
19522;DHT22;9905;52.126;5.596;2023-12-29T02:21:25;10.90;99.90
19522;DHT22;9905;52.126;5.596;2023-12-29T02:23:51;10.80;99.90
19522;DHT22;9905;52.126;5.596;2023-12-29T02:26:21;10.80;99.90
19522;DHT22;9905;52.126;5.596;2023-12-29T02:28:53;10.80;99.90
19522;DHT22;9905;52.126;5.596;2023-12-29T02:31:24;10.80;99.90
19522;DHT22;9905;52.126;5.596;2023-12-29T02:33:52;10.80;99.90
19522;DHT22;9905;52.126;5.596;2023-12-29T02:36:22;10.80;99.90
19522;DHT22;9905;52.126;5.596;2023-12-29T02:38:50;10.80;99.90
19522;DHT22;9905;52.126;5.596;2023-12-29T02:41:17;10.70;99.90
19522;DHT22;9905;52.126;5.596;2023-12-29T02:43:45;10.70;99.90
19522;DHT22;9905;52.126;5.596;2023-12-29T02:46:12;10.70;99.90
19522;DHT22;9905;52.126;5.596;2023-12-29T02:48:39;10.70;99.90
19522;DHT22;9905;52.126;5.596;2023-12-29T02:51:05;10.60;99.90
19522;DHT22;9905;52.126;5.596;2023-12-29T02:53:33;10.60;99.90
19522;DHT22;9905;52.126;5.596;2023-12-29T02:56:00;10.60;99.90
19522;DHT22;9905;52.126;5.596;2023-12-29T02:58:27;10.60;99.90
19522;DHT22;9905;52.126;5.596;2023-12-29T03:00:55;10.60;99.90
19522;DHT22;9905;52.126;5.596;2023-12-29T03:03:22;10.50;99.90
19522;DHT22;9905;52.126;5.596;2023-12-29T03:05:48;10.50;99.90
19522;DHT22;9905;52.126;5.596;2023-12-29T03:08:15;10.40;99.90
19522;DHT22;9905;52.126;5.596;2023-12-29T03:10:42;10.30;99.90
19522;DHT22;9905;52.126;5.596;2023-12-29T03:13:09;10.30;99.90
19522;DHT22;9905;52.126;5.596;2023-12-29T03:15:35;10.30;99.90
19522;DHT22;9905;52.126;5.596;2023-12-29T03:18:04;10.20;99.90
19522;DHT22;9905;52.126;5.596;2023-12-29T03:20:30;10.20;99.90
19522;DHT22;9905;52.126;5.596;2023-12-29T03:22:57;10.20;99.90
19522;DHT22;9905;52.126;5.596;2023-12-29T03:25:24;10.20;99.90
19522;DHT22;9905;52.126;5.596;2023-12-29T03:27:51;10.20;99.90
19522;DHT22;9905;52.126;5.596;2023-12-29T03:30:17;10.20;99.90
19522;DHT22;9905;52.126;5.596;2023-12-29T03:32:44;10.10;99.90
19522;DHT22;9905;52.126;5.596;2023-12-29T03:35:12;10.10;99.90
19522;DHT22;9905;52.126;5.596;2023-12-29T03:37:40;10.10;99.90
19522;DHT22;9905;52.126;5.596;2023-12-29T03:40:07;10.10;99.90
19522;DHT22;9905;52.126;5.596;2023-12-29T03:42:34;10.10;99.90
19522;DHT22;9905;52.126;5.596;2023-12-29T03:45:01;10.10;99.90
19522;DHT22;9905;52.126;5.596;2023-12-29T03:47:28;10.10;99.90
19522;DHT22;9905;52.126;5.596;2023-12-29T03:49:58;10.10;99.90
19522;DHT22;9905;52.126;5.596;2023-12-29T03:52:26;10.00;99.90
19522;DHT22;9905;52.126;5.596;2023-12-29T03:54:53;10.00;99.90
19522;DHT22;9905;52.126;5.596;2023-12-29T03:57:19;10.00;99.90
19522;DHT22;9905;52.126;5.596;2023-12-29T03:59:46;10.00;99.90
19522;DHT22;9905;52.126;5.596;2023-12-29T04:02:13;10.00;99.90
19522;DHT22;9905;52.126;5.596;2023-12-29T04:04:41;10.00;99.90
19522;DHT22;9905;52.126;5.596;2023-12-29T04:07:07;10.00;99.90
19522;DHT22;9905;52.126;5.596;2023-12-29T04:09:35;10.00;99.90
19522;DHT22;9905;52.126;5.596;2023-12-29T04:12:03;10.10;99.90
19522;DHT22;9905;52.126;5.596;2023-12-29T04:14:29;10.00;99.90
19522;DHT22;9905;52.126;5.596;2023-12-29T04:16:56;10.00;99.90
19522;DHT22;9905;52.126;5.596;2023-12-29T04:19:23;10.00;99.90
19522;DHT22;9905;52.126;5.596;2023-12-29T04:21:50;9.90;99.90
19522;DHT22;9905;52.126;5.596;2023-12-29T04:24:17;9.90;99.90
19522;DHT22;9905;52.126;5.596;2023-12-29T04:26:45;9.90;99.90
19522;DHT22;9905;52.126;5.596;2023-12-29T04:29:12;9.90;99.90
19522;DHT22;9905;52.126;5.596;2023-12-29T04:31:38;9.90;99.90
19522;DHT22;9905;52.126;5.596;2023-12-29T04:34:05;9.90;99.90
19522;DHT22;9905;52.126;5.596;2023-12-29T04:36:32;9.90;99.90
19522;DHT22;9905;52.126;5.596;2023-12-29T04:38:59;9.90;99.90
19522;DHT22;9905;52.126;5.596;2023-12-29T04:41:25;9.90;99.90
19522;DHT22;9905;52.126;5.596;2023-12-29T04:43:53;10.00;99.90
19522;DHT22;9905;52.126;5.596;2023-12-29T04:46:20;10.00;99.90
19522;DHT22;9905;52.126;5.596;2023-12-29T04:48:47;10.00;99.90
19522;DHT22;9905;52.126;5.596;2023-12-29T04:51:13;10.00;99.90
19522;DHT22;9905;52.126;5.596;2023-12-29T04:53:40;10.00;99.90
19522;DHT22;9905;52.126;5.596;2023-12-29T04:56:07;10.00;99.90
19522;DHT22;9905;52.126;5.596;2023-12-29T04:58:34;10.00;99.90
19522;DHT22;9905;52.126;5.596;2023-12-29T05:01:02;10.10;99.90
19522;DHT22;9905;52.126;5.596;2023-12-29T05:03:29;10.10;99.90
19522;DHT22;9905;52.126;5.596;2023-12-29T05:05:55;10.00;99.90
19522;DHT22;9905;52.126;5.596;2023-12-29T05:08:22;10.10;99.90
19522;DHT22;9905;52.126;5.596;2023-12-29T05:10:49;10.00;99.90
19522;DHT22;9905;52.126;5.596;2023-12-29T05:13:16;10.00;99.90
19522;DHT22;9905;52.126;5.596;2023-12-29T05:15:42;10.00;99.90
19522;DHT22;9905;52.126;5.596;2023-12-29T05:18:10;10.10;99.90
19522;DHT22;9905;52.126;5.596;2023-12-29T05:20:37;10.00;99.90
19522;DHT22;9905;52.126;5.596;2023-12-29T05:23:04;10.10;99.90
19522;DHT22;9905;52.126;5.596;2023-12-29T05:25:31;10.10;99.90
19522;DHT22;9905;52.126;5.596;2023-12-29T05:27:57;10.10;99.90
19522;DHT22;9905;52.126;5.596;2023-12-29T05:30:24;10.10;99.90
19522;DHT22;9905;52.126;5.596;2023-12-29T05:32:52;10.10;99.90
19522;DHT22;9905;52.126;5.596;2023-12-29T05:35:20;10.10;99.90
19522;DHT22;9905;52.126;5.596;2023-12-29T05:37:47;10.10;99.90
19522;DHT22;9905;52.126;5.596;2023-12-29T05:40:14;10.10;99.90
19522;DHT22;9905;52.126;5.596;2023-12-29T05:42:41;10.10;99.90
19522;DHT22;9905;52.126;5.596;2023-12-29T05:45:09;10.10;99.90
19522;DHT22;9905;52.126;5.596;2023-12-29T05:47:36;10.10;99.90
19522;DHT22;9905;52.126;5.596;2023-12-29T05:50:03;10.10;99.90
19522;DHT22;9905;52.126;5.596;2023-12-29T05:52:31;10.10;99.90
19522;DHT22;9905;52.126;5.596;2023-12-29T05:54:59;10.20;99.90
19522;DHT22;9905;52.126;5.596;2023-12-29T05:57:26;10.20;99.90
19522;DHT22;9905;52.126;5.596;2023-12-29T05:59:52;10.20;99.90
19522;DHT22;9905;52.126;5.596;2023-12-29T06:02:19;10.10;99.90
19522;DHT22;9905;52.126;5.596;2023-12-29T06:04:46;10.10;99.90
19522;DHT22;9905;52.126;5.596;2023-12-29T06:07:13;10.20;99.90
19522;DHT22;9905;52.126;5.596;2023-12-29T06:09:41;10.20;99.90
19522;DHT22;9905;52.126;5.596;2023-12-29T06:12:08;10.20;99.90
19522;DHT22;9905;52.126;5.596;2023-12-29T06:14:36;10.20;99.90
19522;DHT22;9905;52.126;5.596;2023-12-29T06:17:03;10.20;99.90
19522;DHT22;9905;52.126;5.596;2023-12-29T06:19:30;10.20;99.90
19522;DHT22;9905;52.126;5.596;2023-12-29T06:21:58;10.20;99.90
19522;DHT22;9905;52.126;5.596;2023-12-29T06:24:25;10.30;99.90
19522;DHT22;9905;52.126;5.596;2023-12-29T06:26:53;10.30;99.90
19522;DHT22;9905;52.126;5.596;2023-12-29T06:29:20;10.20;99.90
19522;DHT22;9905;52.126;5.596;2023-12-29T06:31:47;10.30;99.90
19522;DHT22;9905;52.126;5.596;2023-12-29T06:34:14;10.30;99.90
19522;DHT22;9905;52.126;5.596;2023-12-29T06:36:40;10.30;99.90
19522;DHT22;9905;52.126;5.596;2023-12-29T06:39:07;10.30;99.90
19522;DHT22;9905;52.126;5.596;2023-12-29T06:41:34;10.30;99.90
19522;DHT22;9905;52.126;5.596;2023-12-29T06:44:02;10.30;99.90
19522;DHT22;9905;52.126;5.596;2023-12-29T06:46:29;10.30;99.90
19522;DHT22;9905;52.126;5.596;2023-12-29T06:48:56;10.30;99.90
19522;DHT22;9905;52.126;5.596;2023-12-29T06:51:23;10.40;99.90
19522;DHT22;9905;52.126;5.596;2023-12-29T06:53:50;10.40;99.90
19522;DHT22;9905;52.126;5.596;2023-12-29T06:56:17;10.40;99.90
19522;DHT22;9905;52.126;5.596;2023-12-29T06:58:44;10.40;99.90
19522;DHT22;9905;52.126;5.596;2023-12-29T07:01:13;10.30;99.90
19522;DHT22;9905;52.126;5.596;2023-12-29T07:03:41;10.30;99.90
19522;DHT22;9905;52.126;5.596;2023-12-29T07:06:08;10.40;99.90
19522;DHT22;9905;52.126;5.596;2023-12-29T07:08:36;10.30;99.90
19522;DHT22;9905;52.126;5.596;2023-12-29T07:11:03;10.30;99.90
19522;DHT22;9905;52.126;5.596;2023-12-29T07:13:30;10.20;99.90
19522;DHT22;9905;52.126;5.596;2023-12-29T07:15:56;10.30;99.90
19522;DHT22;9905;52.126;5.596;2023-12-29T07:18:25;10.20;99.90
19522;DHT22;9905;52.126;5.596;2023-12-29T07:20:51;10.20;99.90
19522;DHT22;9905;52.126;5.596;2023-12-29T07:23:18;10.20;99.90
19522;DHT22;9905;52.126;5.596;2023-12-29T07:25:46;10.20;99.90
19522;DHT22;9905;52.126;5.596;2023-12-29T07:28:13;10.20;99.90
19522;DHT22;9905;52.126;5.596;2023-12-29T07:30:40;10.20;99.90
19522;DHT22;9905;52.126;5.596;2023-12-29T07:33:07;10.20;99.90
19522;DHT22;9905;52.126;5.596;2023-12-29T07:35:35;10.20;99.90
19522;DHT22;9905;52.126;5.596;2023-12-29T07:38:02;10.10;99.90
19522;DHT22;9905;52.126;5.596;2023-12-29T07:40:29;10.10;99.90
19522;DHT22;9905;52.126;5.596;2023-12-29T07:42:56;10.10;99.90
19522;DHT22;9905;52.126;5.596;2023-12-29T07:45:23;10.10;99.90
19522;DHT22;9905;52.126;5.596;2023-12-29T07:47:50;10.10;99.90
19522;DHT22;9905;52.126;5.596;2023-12-29T07:50:17;10.10;99.90
19522;DHT22;9905;52.126;5.596;2023-12-29T07:52:45;10.10;99.90
19522;DHT22;9905;52.126;5.596;2023-12-29T07:55:12;10.10;99.90
19522;DHT22;9905;52.126;5.596;2023-12-29T07:57:41;10.10;99.90
19522;DHT22;9905;52.126;5.596;2023-12-29T08:00:09;10.10;99.90
19522;DHT22;9905;52.126;5.596;2023-12-29T08:02:36;10.00;99.90
19522;DHT22;9905;52.126;5.596;2023-12-29T08:05:03;10.10;99.90
19522;DHT22;9905;52.126;5.596;2023-12-29T08:07:30;10.00;99.90
19522;DHT22;9905;52.126;5.596;2023-12-29T08:10:00;10.00;99.90
19522;DHT22;9905;52.126;5.596;2023-12-29T08:12:30;10.00;99.90
19522;DHT22;9905;52.126;5.596;2023-12-29T08:14:58;10.00;99.90
19522;DHT22;9905;52.126;5.596;2023-12-29T08:17:25;10.00;99.90
19522;DHT22;9905;52.126;5.596;2023-12-29T08:19:52;10.00;99.90
19522;DHT22;9905;52.126;5.596;2023-12-29T08:22:19;10.00;99.90
19522;DHT22;9905;52.126;5.596;2023-12-29T08:24:46;10.00;99.90
19522;DHT22;9905;52.126;5.596;2023-12-29T08:27:18;10.10;99.90
19522;DHT22;9905;52.126;5.596;2023-12-29T08:29:48;10.10;99.90
19522;DHT22;9905;52.126;5.596;2023-12-29T08:32:15;10.10;99.90
19522;DHT22;9905;52.126;5.596;2023-12-29T08:34:42;10.10;99.90
19522;DHT22;9905;52.126;5.596;2023-12-29T08:37:09;10.10;99.90
19522;DHT22;9905;52.126;5.596;2023-12-29T08:39:35;10.10;99.90
19522;DHT22;9905;52.126;5.596;2023-12-29T08:42:02;10.10;99.90
19522;DHT22;9905;52.126;5.596;2023-12-29T08:44:31;10.10;99.90
19522;DHT22;9905;52.126;5.596;2023-12-29T08:46:58;10.10;99.90
19522;DHT22;9905;52.126;5.596;2023-12-29T08:49:25;10.10;99.90
19522;DHT22;9905;52.126;5.596;2023-12-29T08:51:51;10.20;99.90
19522;DHT22;9905;52.126;5.596;2023-12-29T08:54:18;10.30;99.90
19522;DHT22;9905;52.126;5.596;2023-12-29T08:56:45;10.30;99.90
19522;DHT22;9905;52.126;5.596;2023-12-29T08:59:12;10.30;99.90
19522;DHT22;9905;52.126;5.596;2023-12-29T09:01:40;10.20;99.90
19522;DHT22;9905;52.126;5.596;2023-12-29T09:04:06;10.20;99.90
19522;DHT22;9905;52.126;5.596;2023-12-29T09:06:33;10.20;99.90
19522;DHT22;9905;52.126;5.596;2023-12-29T09:09:00;10.20;99.90
19522;DHT22;9905;52.126;5.596;2023-12-29T09:11:26;10.20;99.90
19522;DHT22;9905;52.126;5.596;2023-12-29T09:13:53;10.10;99.90
19522;DHT22;9905;52.126;5.596;2023-12-29T09:16:20;10.10;99.90
19522;DHT22;9905;52.126;5.596;2023-12-29T09:18:48;10.10;99.90
19522;DHT22;9905;52.126;5.596;2023-12-29T09:21:15;10.10;99.90
19522;DHT22;9905;52.126;5.596;2023-12-29T09:23:41;10.10;99.90
19522;DHT22;9905;52.126;5.596;2023-12-29T09:26:08;10.20;99.90
19522;DHT22;9905;52.126;5.596;2023-12-29T09:28:35;10.20;99.90
19522;DHT22;9905;52.126;5.596;2023-12-29T09:31:02;10.20;99.90
19522;DHT22;9905;52.126;5.596;2023-12-29T09:33:28;10.20;99.90
19522;DHT22;9905;52.126;5.596;2023-12-29T09:35:56;10.30;99.90
19522;DHT22;9905;52.126;5.596;2023-12-29T09:38:23;10.30;99.90
19522;DHT22;9905;52.126;5.596;2023-12-29T09:40:51;10.30;99.90
19522;DHT22;9905;52.126;5.596;2023-12-29T09:43:19;10.30;99.90
19522;DHT22;9905;52.126;5.596;2023-12-29T09:45:47;10.40;99.90
19522;DHT22;9905;52.126;5.596;2023-12-29T09:48:16;10.40;99.90
19522;DHT22;9905;52.126;5.596;2023-12-29T09:50:46;10.50;99.90
19522;DHT22;9905;52.126;5.596;2023-12-29T09:53:14;10.50;99.90
19522;DHT22;9905;52.126;5.596;2023-12-29T09:55:42;10.50;99.90
19522;DHT22;9905;52.126;5.596;2023-12-29T09:58:12;10.60;99.90
19522;DHT22;9905;52.126;5.596;2023-12-29T10:00:39;10.60;99.90
19522;DHT22;9905;52.126;5.596;2023-12-29T10:03:06;10.60;99.90
19522;DHT22;9905;52.126;5.596;2023-12-29T10:05:34;10.70;99.90
19522;DHT22;9905;52.126;5.596;2023-12-29T10:08:03;10.70;99.90
19522;DHT22;9905;52.126;5.596;2023-12-29T10:10:33;10.70;99.90
19522;DHT22;9905;52.126;5.596;2023-12-29T10:13:03;10.70;99.90
19522;DHT22;9905;52.126;5.596;2023-12-29T10:15:37;10.70;99.90
19522;DHT22;9905;52.126;5.596;2023-12-29T10:18:14;10.80;99.90
19522;DHT22;9905;52.126;5.596;2023-12-29T10:20:45;10.80;99.90
19522;DHT22;9905;52.126;5.596;2023-12-29T10:23:17;10.80;99.90
19522;DHT22;9905;52.126;5.596;2023-12-29T10:25:47;10.90;99.90
19522;DHT22;9905;52.126;5.596;2023-12-29T10:28:16;10.90;99.90
19522;DHT22;9905;52.126;5.596;2023-12-29T10:30:43;11.00;99.90
19522;DHT22;9905;52.126;5.596;2023-12-29T10:33:10;11.00;99.90
19522;DHT22;9905;52.126;5.596;2023-12-29T10:35:37;11.00;99.90
19522;DHT22;9905;52.126;5.596;2023-12-29T10:38:11;11.00;99.90
19522;DHT22;9905;52.126;5.596;2023-12-29T10:40:39;11.00;99.90
19522;DHT22;9905;52.126;5.596;2023-12-29T10:43:07;11.00;99.90
19522;DHT22;9905;52.126;5.596;2023-12-29T10:45:35;11.00;99.90
19522;DHT22;9905;52.126;5.596;2023-12-29T10:48:03;11.00;99.90
19522;DHT22;9905;52.126;5.596;2023-12-29T10:50:29;11.00;99.90
19522;DHT22;9905;52.126;5.596;2023-12-29T10:53:10;11.00;99.90
19522;DHT22;9905;52.126;5.596;2023-12-29T10:55:38;11.00;99.90
19522;DHT22;9905;52.126;5.596;2023-12-29T10:58:07;11.00;99.90
19522;DHT22;9905;52.126;5.596;2023-12-29T11:00:33;11.10;99.90
19522;DHT22;9905;52.126;5.596;2023-12-29T11:03:00;11.00;99.90
19522;DHT22;9905;52.126;5.596;2023-12-29T11:05:27;11.10;99.90
19522;DHT22;9905;52.126;5.596;2023-12-29T11:07:54;11.00;99.90
19522;DHT22;9905;52.126;5.596;2023-12-29T11:10:25;11.00;99.90
19522;DHT22;9905;52.126;5.596;2023-12-29T11:12:52;11.10;99.90
19522;DHT22;9905;52.126;5.596;2023-12-29T11:15:21;11.00;99.90
19522;DHT22;9905;52.126;5.596;2023-12-29T11:17:50;11.00;99.90
19522;DHT22;9905;52.126;5.596;2023-12-29T11:20:18;11.00;99.90
19522;DHT22;9905;52.126;5.596;2023-12-29T11:22:46;11.00;99.90
19522;DHT22;9905;52.126;5.596;2023-12-29T11:25:13;11.10;99.90
19522;DHT22;9905;52.126;5.596;2023-12-29T11:27:41;11.00;99.90
19522;DHT22;9905;52.126;5.596;2023-12-29T11:30:11;11.10;99.90
19522;DHT22;9905;52.126;5.596;2023-12-29T11:32:46;11.10;99.90
19522;DHT22;9905;52.126;5.596;2023-12-29T11:35:21;11.10;99.90
19522;DHT22;9905;52.126;5.596;2023-12-29T11:38:10;11.10;99.90
19522;DHT22;9905;52.126;5.596;2023-12-29T11:40:43;11.10;99.90
19522;DHT22;9905;52.126;5.596;2023-12-29T11:43:14;11.10;99.90
19522;DHT22;9905;52.126;5.596;2023-12-29T11:45:41;11.10;99.90
19522;DHT22;9905;52.126;5.596;2023-12-29T11:48:10;11.20;99.90
19522;DHT22;9905;52.126;5.596;2023-12-29T11:50:39;11.10;99.90
19522;DHT22;9905;52.126;5.596;2023-12-29T11:53:06;11.10;99.90
19522;DHT22;9905;52.126;5.596;2023-12-29T11:55:35;11.10;99.90
19522;DHT22;9905;52.126;5.596;2023-12-29T11:58:02;11.20;99.90
19522;DHT22;9905;52.126;5.596;2023-12-29T12:00:45;11.20;99.90
19522;DHT22;9905;52.126;5.596;2023-12-29T12:03:17;11.20;99.90
19522;DHT22;9905;52.126;5.596;2023-12-29T12:05:45;11.20;99.90
19522;DHT22;9905;52.126;5.596;2023-12-29T12:08:26;11.20;99.90
19522;DHT22;9905;52.126;5.596;2023-12-29T12:10:54;11.20;99.90
19522;DHT22;9905;52.126;5.596;2023-12-29T12:13:42;11.20;99.90
19522;DHT22;9905;52.126;5.596;2023-12-29T12:16:09;11.30;99.90
19522;DHT22;9905;52.126;5.596;2023-12-29T12:18:39;11.30;99.90
19522;DHT22;9905;52.126;5.596;2023-12-29T12:21:06;11.30;99.90
19522;DHT22;9905;52.126;5.596;2023-12-29T12:23:35;11.30;99.90
19522;DHT22;9905;52.126;5.596;2023-12-29T12:26:04;11.30;99.90
19522;DHT22;9905;52.126;5.596;2023-12-29T12:28:32;11.30;99.90
19522;DHT22;9905;52.126;5.596;2023-12-29T12:31:05;11.30;99.90
19522;DHT22;9905;52.126;5.596;2023-12-29T12:33:34;11.30;99.90
19522;DHT22;9905;52.126;5.596;2023-12-29T12:36:03;11.30;99.90
19522;DHT22;9905;52.126;5.596;2023-12-29T12:38:30;11.30;99.90
19522;DHT22;9905;52.126;5.596;2023-12-29T12:41:09;11.30;99.90
19522;DHT22;9905;52.126;5.596;2023-12-29T12:43:38;11.40;99.90
19522;DHT22;9905;52.126;5.596;2023-12-29T12:46:09;11.40;99.90
19522;DHT22;9905;52.126;5.596;2023-12-29T12:48:42;11.40;99.90
19522;DHT22;9905;52.126;5.596;2023-12-29T12:51:11;11.40;99.90
19522;DHT22;9905;52.126;5.596;2023-12-29T12:53:40;11.40;99.90
19522;DHT22;9905;52.126;5.596;2023-12-29T12:56:06;11.30;99.90
19522;DHT22;9905;52.126;5.596;2023-12-29T12:58:33;11.30;99.90
19522;DHT22;9905;52.126;5.596;2023-12-29T13:01:00;11.30;99.90
19522;DHT22;9905;52.126;5.596;2023-12-29T13:03:28;11.30;99.90
19522;DHT22;9905;52.126;5.596;2023-12-29T13:05:56;11.40;99.90
19522;DHT22;9905;52.126;5.596;2023-12-29T13:08:25;11.40;99.90
19522;DHT22;9905;52.126;5.596;2023-12-29T13:10:52;11.40;99.90
19522;DHT22;9905;52.126;5.596;2023-12-29T13:13:19;11.40;99.90
19522;DHT22;9905;52.126;5.596;2023-12-29T13:15:47;11.40;99.90
19522;DHT22;9905;52.126;5.596;2023-12-29T13:18:14;11.40;99.90
19522;DHT22;9905;52.126;5.596;2023-12-29T13:20:44;11.40;99.90
19522;DHT22;9905;52.126;5.596;2023-12-29T13:23:11;11.40;99.90
19522;DHT22;9905;52.126;5.596;2023-12-29T13:25:40;11.30;99.90
19522;DHT22;9905;52.126;5.596;2023-12-29T13:28:09;11.30;99.90
19522;DHT22;9905;52.126;5.596;2023-12-29T13:30:37;11.30;99.90
19522;DHT22;9905;52.126;5.596;2023-12-29T13:33:07;11.30;99.90
19522;DHT22;9905;52.126;5.596;2023-12-29T13:35:38;11.30;99.90
19522;DHT22;9905;52.126;5.596;2023-12-29T13:38:09;11.20;99.90
19522;DHT22;9905;52.126;5.596;2023-12-29T13:40:41;11.20;99.90
19522;DHT22;9905;52.126;5.596;2023-12-29T13:43:09;11.20;99.90
19522;DHT22;9905;52.126;5.596;2023-12-29T13:45:36;11.20;99.90
19522;DHT22;9905;52.126;5.596;2023-12-29T13:48:06;11.20;99.90
19522;DHT22;9905;52.126;5.596;2023-12-29T13:50:34;11.20;99.90
19522;DHT22;9905;52.126;5.596;2023-12-29T13:53:00;11.20;99.90
19522;DHT22;9905;52.126;5.596;2023-12-29T13:55:27;11.20;99.90
19522;DHT22;9905;52.126;5.596;2023-12-29T13:57:55;11.20;99.90
19522;DHT22;9905;52.126;5.596;2023-12-29T14:00:23;11.10;99.90
19522;DHT22;9905;52.126;5.596;2023-12-29T14:03:01;11.10;99.90
19522;DHT22;9905;52.126;5.596;2023-12-29T14:05:32;11.10;99.90
19522;DHT22;9905;52.126;5.596;2023-12-29T14:08:08;11.10;99.90
19522;DHT22;9905;52.126;5.596;2023-12-29T14:10:36;11.10;99.90
19522;DHT22;9905;52.126;5.596;2023-12-29T14:13:06;11.10;99.90
19522;DHT22;9905;52.126;5.596;2023-12-29T14:15:37;11.10;99.90
19522;DHT22;9905;52.126;5.596;2023-12-29T14:18:13;11.10;99.90
19522;DHT22;9905;52.126;5.596;2023-12-29T14:20:45;11.10;99.90
19522;DHT22;9905;52.126;5.596;2023-12-29T14:23:11;11.00;99.90
19522;DHT22;9905;52.126;5.596;2023-12-29T14:25:39;11.00;99.90
19522;DHT22;9905;52.126;5.596;2023-12-29T14:28:16;11.00;99.90
19522;DHT22;9905;52.126;5.596;2023-12-29T14:30:43;11.00;99.90
19522;DHT22;9905;52.126;5.596;2023-12-29T14:33:11;11.00;99.90
19522;DHT22;9905;52.126;5.596;2023-12-29T14:35:38;11.00;99.90
19522;DHT22;9905;52.126;5.596;2023-12-29T14:38:05;11.00;99.90
19522;DHT22;9905;52.126;5.596;2023-12-29T14:40:31;11.00;99.90
19522;DHT22;9905;52.126;5.596;2023-12-29T14:43:00;11.00;99.90
19522;DHT22;9905;52.126;5.596;2023-12-29T14:45:28;11.00;99.90
19522;DHT22;9905;52.126;5.596;2023-12-29T14:47:55;11.00;99.90
19522;DHT22;9905;52.126;5.596;2023-12-29T14:50:22;10.90;99.90
19522;DHT22;9905;52.126;5.596;2023-12-29T14:52:49;10.90;99.90
19522;DHT22;9905;52.126;5.596;2023-12-29T14:55:16;10.90;99.90
19522;DHT22;9905;52.126;5.596;2023-12-29T14:57:42;10.90;99.90
19522;DHT22;9905;52.126;5.596;2023-12-29T15:00:11;10.90;99.90
19522;DHT22;9905;52.126;5.596;2023-12-29T15:02:39;10.90;99.90
19522;DHT22;9905;52.126;5.596;2023-12-29T15:05:07;10.90;99.90
19522;DHT22;9905;52.126;5.596;2023-12-29T15:07:34;10.90;99.90
19522;DHT22;9905;52.126;5.596;2023-12-29T15:10:01;10.90;99.90
19522;DHT22;9905;52.126;5.596;2023-12-29T15:12:28;10.90;99.90
19522;DHT22;9905;52.126;5.596;2023-12-29T15:14:55;10.80;99.90
19522;DHT22;9905;52.126;5.596;2023-12-29T15:17:22;10.80;99.90
19522;DHT22;9905;52.126;5.596;2023-12-29T15:19:50;10.80;99.90
19522;DHT22;9905;52.126;5.596;2023-12-29T15:22:16;10.80;99.90
19522;DHT22;9905;52.126;5.596;2023-12-29T15:24:44;10.70;99.90
19522;DHT22;9905;52.126;5.596;2023-12-29T15:27:11;10.50;99.90
19522;DHT22;9905;52.126;5.596;2023-12-29T15:29:38;10.40;99.90
19522;DHT22;9905;52.126;5.596;2023-12-29T15:32:05;10.40;99.90
19522;DHT22;9905;52.126;5.596;2023-12-29T15:34:32;10.20;99.90
19522;DHT22;9905;52.126;5.596;2023-12-29T15:37:00;10.10;99.90
19522;DHT22;9905;52.126;5.596;2023-12-29T15:39:28;10.10;99.90
19522;DHT22;9905;52.126;5.596;2023-12-29T15:41:55;10.00;99.90
19522;DHT22;9905;52.126;5.596;2023-12-29T15:44:21;10.00;99.90
19522;DHT22;9905;52.126;5.596;2023-12-29T15:46:48;9.90;99.90
19522;DHT22;9905;52.126;5.596;2023-12-29T15:49:16;9.90;99.90
19522;DHT22;9905;52.126;5.596;2023-12-29T15:51:42;9.80;99.90